sensor_id;sensor_type;location;lat;lon;timestamp;P1;durP1;ratioP1;P2;durP2;ratioP2
26702;SDS011;14316;51.074;3.704;2023-03-01T00:01:29;12.23;;;9.95;;
26702;SDS011;14316;51.074;3.704;2023-03-01T00:03:56;11.20;;;9.65;;
26702;SDS011;14316;51.074;3.704;2023-03-01T00:06:23;12.57;;;10.35;;
26702;SDS011;14316;51.074;3.704;2023-03-01T00:08:49;12.02;;;9.48;;
26702;SDS011;14316;51.074;3.704;2023-03-01T00:11:19;13.85;;;10.40;;
26702;SDS011;14316;51.074;3.704;2023-03-01T00:13:47;14.65;;;10.20;;
26702;SDS011;14316;51.074;3.704;2023-03-01T00:16:18;12.32;;;10.00;;
26702;SDS011;14316;51.074;3.704;2023-03-01T00:18:49;13.30;;;10.27;;
26702;SDS011;14316;51.074;3.704;2023-03-01T00:21:15;13.32;;;10.45;;
26702;SDS011;14316;51.074;3.704;2023-03-01T00:23:41;12.65;;;10.27;;
26702;SDS011;14316;51.074;3.704;2023-03-01T00:26:09;14.13;;;10.70;;
26702;SDS011;14316;51.074;3.704;2023-03-01T00:28:38;11.35;;;10.07;;
26702;SDS011;14316;51.074;3.704;2023-03-01T00:31:04;12.98;;;10.52;;
26702;SDS011;14316;51.074;3.704;2023-03-01T00:33:31;11.35;;;9.55;;
26702;SDS011;14316;51.074;3.704;2023-03-01T00:35:58;10.95;;;9.38;;
26702;SDS011;14316;51.074;3.704;2023-03-01T00:38:24;11.73;;;9.65;;
26702;SDS011;14316;51.074;3.704;2023-03-01T00:40:50;13.07;;;9.45;;
26702;SDS011;14316;51.074;3.704;2023-03-01T00:43:17;11.63;;;9.75;;
26702;SDS011;14316;51.074;3.704;2023-03-01T00:45:43;13.65;;;9.38;;
26702;SDS011;14316;51.074;3.704;2023-03-01T00:48:09;14.40;;;10.02;;
26702;SDS011;14316;51.074;3.704;2023-03-01T00:50:34;11.70;;;9.82;;
26702;SDS011;14316;51.074;3.704;2023-03-01T00:53:01;11.40;;;9.70;;
26702;SDS011;14316;51.074;3.704;2023-03-01T00:55:27;13.13;;;9.98;;
26702;SDS011;14316;51.074;3.704;2023-03-01T00:57:53;11.98;;;9.45;;
26702;SDS011;14316;51.074;3.704;2023-03-01T01:00:19;16.98;;;9.55;;
26702;SDS011;14316;51.074;3.704;2023-03-01T01:02:45;13.40;;;10.02;;
26702;SDS011;14316;51.074;3.704;2023-03-01T01:05:12;11.88;;;9.40;;
26702;SDS011;14316;51.074;3.704;2023-03-01T01:07:39;12.05;;;10.27;;
26702;SDS011;14316;51.074;3.704;2023-03-01T01:10:05;15.05;;;10.60;;
26702;SDS011;14316;51.074;3.704;2023-03-01T01:12:31;11.98;;;9.88;;
26702;SDS011;14316;51.074;3.704;2023-03-01T01:14:57;11.80;;;9.75;;
26702;SDS011;14316;51.074;3.704;2023-03-01T01:17:23;12.57;;;10.20;;
26702;SDS011;14316;51.074;3.704;2023-03-01T01:19:49;12.52;;;10.10;;
26702;SDS011;14316;51.074;3.704;2023-03-01T01:22:15;14.07;;;11.00;;
26702;SDS011;14316;51.074;3.704;2023-03-01T01:24:40;12.77;;;10.88;;
26702;SDS011;14316;51.074;3.704;2023-03-01T01:27:06;12.98;;;10.45;;
26702;SDS011;14316;51.074;3.704;2023-03-01T01:29:32;14.75;;;11.45;;
26702;SDS011;14316;51.074;3.704;2023-03-01T01:31:58;14.00;;;10.45;;
26702;SDS011;14316;51.074;3.704;2023-03-01T01:34:24;15.43;;;11.73;;
26702;SDS011;14316;51.074;3.704;2023-03-01T01:36:50;16.15;;;11.88;;
26702;SDS011;14316;51.074;3.704;2023-03-01T01:39:19;16.98;;;13.10;;
26702;SDS011;14316;51.074;3.704;2023-03-01T01:41:45;16.90;;;12.15;;
26702;SDS011;14316;51.074;3.704;2023-03-01T01:44:16;16.67;;;12.10;;
26702;SDS011;14316;51.074;3.704;2023-03-01T01:46:46;17.15;;;12.63;;
26702;SDS011;14316;51.074;3.704;2023-03-01T01:49:32;15.23;;;12.93;;
26702;SDS011;14316;51.074;3.704;2023-03-01T01:57:23;16.15;;;14.23;;
26702;SDS011;14316;51.074;3.704;2023-03-01T01:59:54;19.17;;;13.52;;
26702;SDS011;14316;51.074;3.704;2023-03-01T02:02:23;15.23;;;13.23;;
26702;SDS011;14316;51.074;3.704;2023-03-01T02:04:52;18.05;;;13.90;;
26702;SDS011;14316;51.074;3.704;2023-03-01T02:07:30;16.52;;;13.23;;
26702;SDS011;14316;51.074;3.704;2023-03-01T02:09:56;16.23;;;13.35;;
26702;SDS011;14316;51.074;3.704;2023-03-01T02:12:23;17.00;;;13.90;;
26702;SDS011;14316;51.074;3.704;2023-03-01T02:14:50;17.35;;;14.38;;
26702;SDS011;14316;51.074;3.704;2023-03-01T02:17:17;16.98;;;14.30;;
26702;SDS011;14316;51.074;3.704;2023-03-01T02:20:00;19.08;;;14.45;;
26702;SDS011;14316;51.074;3.704;2023-03-01T02:22:32;17.83;;;13.95;;
26702;SDS011;14316;51.074;3.704;2023-03-01T02:27:49;17.63;;;14.20;;
26702;SDS011;14316;51.074;3.704;2023-03-01T02:30:30;19.40;;;14.57;;
26702;SDS011;14316;51.074;3.704;2023-03-01T02:32:57;18.33;;;14.95;;
26702;SDS011;14316;51.074;3.704;2023-03-01T02:35:33;21.02;;;14.85;;
26702;SDS011;14316;51.074;3.704;2023-03-01T02:38:02;20.80;;;15.20;;
26702;SDS011;14316;51.074;3.704;2023-03-01T02:40:31;20.58;;;15.98;;
26702;SDS011;14316;51.074;3.704;2023-03-01T02:43:00;18.55;;;15.68;;
26702;SDS011;14316;51.074;3.704;2023-03-01T02:45:26;21.60;;;16.40;;
26702;SDS011;14316;51.074;3.704;2023-03-01T02:47:56;21.75;;;15.75;;
26702;SDS011;14316;51.074;3.704;2023-03-01T02:50:35;22.27;;;16.02;;
26702;SDS011;14316;51.074;3.704;2023-03-01T02:53:28;21.05;;;16.25;;
26702;SDS011;14316;51.074;3.704;2023-03-01T02:56:15;22.45;;;16.95;;
26702;SDS011;14316;51.074;3.704;2023-03-01T02:58:41;23.50;;;17.80;;
26702;SDS011;14316;51.074;3.704;2023-03-01T03:01:10;22.17;;;17.25;;
26702;SDS011;14316;51.074;3.704;2023-03-01T03:03:40;23.75;;;18.15;;
26702;SDS011;14316;51.074;3.704;2023-03-01T03:06:07;24.75;;;17.90;;
26702;SDS011;14316;51.074;3.704;2023-03-01T03:08:33;23.17;;;18.42;;
26702;SDS011;14316;51.074;3.704;2023-03-01T03:10:58;24.40;;;18.95;;
26702;SDS011;14316;51.074;3.704;2023-03-01T03:13:24;26.38;;;19.05;;
26702;SDS011;14316;51.074;3.704;2023-03-01T03:15:53;26.10;;;19.40;;
26702;SDS011;14316;51.074;3.704;2023-03-01T03:18:21;23.00;;;18.05;;
26702;SDS011;14316;51.074;3.704;2023-03-01T03:20:48;24.10;;;18.88;;
26702;SDS011;14316;51.074;3.704;2023-03-01T03:23:17;22.38;;;18.17;;
26702;SDS011;14316;51.074;3.704;2023-03-01T03:25:44;24.55;;;19.27;;
26702;SDS011;14316;51.074;3.704;2023-03-01T03:28:12;26.15;;;19.15;;
26702;SDS011;14316;51.074;3.704;2023-03-01T03:30:41;27.67;;;19.58;;
26702;SDS011;14316;51.074;3.704;2023-03-01T03:33:07;25.02;;;19.42;;
26702;SDS011;14316;51.074;3.704;2023-03-01T03:35:39;25.00;;;18.63;;
26702;SDS011;14316;51.074;3.704;2023-03-01T03:38:11;27.85;;;19.98;;
26702;SDS011;14316;51.074;3.704;2023-03-01T03:40:45;27.08;;;19.55;;
26702;SDS011;14316;51.074;3.704;2023-03-01T03:43:17;25.00;;;18.87;;
26702;SDS011;14316;51.074;3.704;2023-03-01T03:45:48;25.30;;;19.50;;
26702;SDS011;14316;51.074;3.704;2023-03-01T03:48:15;27.92;;;19.45;;
26702;SDS011;14316;51.074;3.704;2023-03-01T03:50:41;27.52;;;18.40;;
26702;SDS011;14316;51.074;3.704;2023-03-01T03:53:12;26.15;;;20.08;;
26702;SDS011;14316;51.074;3.704;2023-03-01T03:55:38;26.13;;;19.00;;
26702;SDS011;14316;51.074;3.704;2023-03-01T03:58:05;26.95;;;19.35;;
26702;SDS011;14316;51.074;3.704;2023-03-01T04:00:36;28.05;;;18.58;;
26702;SDS011;14316;51.074;3.704;2023-03-01T04:03:03;29.38;;;19.85;;
26702;SDS011;14316;51.074;3.704;2023-03-01T04:05:30;26.75;;;18.98;;
26702;SDS011;14316;51.074;3.704;2023-03-01T04:07:56;24.77;;;18.58;;
26702;SDS011;14316;51.074;3.704;2023-03-01T04:10:29;26.90;;;18.95;;
26702;SDS011;14316;51.074;3.704;2023-03-01T04:12:56;24.52;;;18.40;;
26702;SDS011;14316;51.074;3.704;2023-03-01T04:15:22;24.80;;;19.98;;
26702;SDS011;14316;51.074;3.704;2023-03-01T04:17:49;28.38;;;20.33;;
26702;SDS011;14316;51.074;3.704;2023-03-01T04:20:18;26.58;;;19.27;;
26702;SDS011;14316;51.074;3.704;2023-03-01T04:25:16;27.55;;;19.83;;
26702;SDS011;14316;51.074;3.704;2023-03-01T04:27:43;28.42;;;20.35;;
26702;SDS011;14316;51.074;3.704;2023-03-01T04:30:08;28.67;;;19.38;;
26702;SDS011;14316;51.074;3.704;2023-03-01T04:32:35;25.65;;;19.65;;
26702;SDS011;14316;51.074;3.704;2023-03-01T04:35:01;32.25;;;20.25;;
26702;SDS011;14316;51.074;3.704;2023-03-01T04:37:27;28.05;;;20.02;;
26702;SDS011;14316;51.074;3.704;2023-03-01T04:39:53;27.52;;;19.50;;
26702;SDS011;14316;51.074;3.704;2023-03-01T04:42:18;28.65;;;19.63;;
26702;SDS011;14316;51.074;3.704;2023-03-01T04:44:45;29.13;;;20.30;;
26702;SDS011;14316;51.074;3.704;2023-03-01T04:47:11;26.45;;;19.92;;
26702;SDS011;14316;51.074;3.704;2023-03-01T04:49:37;28.92;;;19.77;;
26702;SDS011;14316;51.074;3.704;2023-03-01T04:52:04;29.20;;;20.90;;
26702;SDS011;14316;51.074;3.704;2023-03-01T04:54:33;28.05;;;20.80;;
26702;SDS011;14316;51.074;3.704;2023-03-01T04:57:01;27.83;;;20.75;;
26702;SDS011;14316;51.074;3.704;2023-03-01T04:59:28;26.02;;;19.88;;
26702;SDS011;14316;51.074;3.704;2023-03-01T05:01:54;28.55;;;19.90;;
26702;SDS011;14316;51.074;3.704;2023-03-01T05:04:21;25.65;;;19.38;;
26702;SDS011;14316;51.074;3.704;2023-03-01T05:06:48;31.05;;;19.92;;
26702;SDS011;14316;51.074;3.704;2023-03-01T05:09:14;29.85;;;20.88;;
26702;SDS011;14316;51.074;3.704;2023-03-01T05:11:40;30.33;;;20.15;;
26702;SDS011;14316;51.074;3.704;2023-03-01T05:14:06;28.83;;;20.33;;
26702;SDS011;14316;51.074;3.704;2023-03-01T05:16:33;26.63;;;19.30;;
26702;SDS011;14316;51.074;3.704;2023-03-01T05:19:01;23.27;;;17.38;;
26702;SDS011;14316;51.074;3.704;2023-03-01T05:21:36;24.15;;;18.15;;
26702;SDS011;14316;51.074;3.704;2023-03-01T05:24:23;23.40;;;18.33;;
26702;SDS011;14316;51.074;3.704;2023-03-01T05:26:49;24.88;;;17.17;;
26702;SDS011;14316;51.074;3.704;2023-03-01T05:29:17;22.60;;;17.35;;
26702;SDS011;14316;51.074;3.704;2023-03-01T05:31:50;21.60;;;16.67;;
26702;SDS011;14316;51.074;3.704;2023-03-01T05:34:18;23.17;;;16.15;;
26702;SDS011;14316;51.074;3.704;2023-03-01T05:36:47;22.00;;;16.35;;
26702;SDS011;14316;51.074;3.704;2023-03-01T05:39:13;19.10;;;14.35;;
26702;SDS011;14316;51.074;3.704;2023-03-01T05:41:42;19.27;;;14.57;;
26702;SDS011;14316;51.074;3.704;2023-03-01T05:44:07;21.05;;;14.85;;
26702;SDS011;14316;51.074;3.704;2023-03-01T05:46:33;21.20;;;14.43;;
26702;SDS011;14316;51.074;3.704;2023-03-01T05:48:59;20.52;;;14.63;;
26702;SDS011;14316;51.074;3.704;2023-03-01T05:51:25;21.50;;;15.00;;
26702;SDS011;14316;51.074;3.704;2023-03-01T05:53:51;25.50;;;14.93;;
26702;SDS011;14316;51.074;3.704;2023-03-01T05:56:16;25.20;;;15.55;;
26702;SDS011;14316;51.074;3.704;2023-03-01T05:58:42;21.08;;;14.20;;
26702;SDS011;14316;51.074;3.704;2023-03-01T06:01:11;19.38;;;14.50;;
26702;SDS011;14316;51.074;3.704;2023-03-01T06:03:38;20.40;;;13.82;;
26702;SDS011;14316;51.074;3.704;2023-03-01T06:06:04;26.02;;;15.65;;
26702;SDS011;14316;51.074;3.704;2023-03-01T06:08:29;20.10;;;14.43;;
26702;SDS011;14316;51.074;3.704;2023-03-01T06:10:55;19.83;;;14.23;;
26702;SDS011;14316;51.074;3.704;2023-03-01T06:13:21;19.40;;;14.05;;
26702;SDS011;14316;51.074;3.704;2023-03-01T06:15:48;24.45;;;15.07;;
26702;SDS011;14316;51.074;3.704;2023-03-01T06:18:14;17.52;;;14.07;;
26702;SDS011;14316;51.074;3.704;2023-03-01T06:20:39;20.48;;;14.30;;
26702;SDS011;14316;51.074;3.704;2023-03-01T06:23:05;21.42;;;14.25;;
26702;SDS011;14316;51.074;3.704;2023-03-01T06:25:31;19.52;;;14.18;;
26702;SDS011;14316;51.074;3.704;2023-03-01T06:27:57;18.35;;;13.55;;
26702;SDS011;14316;51.074;3.704;2023-03-01T06:30:23;21.60;;;13.95;;
26702;SDS011;14316;51.074;3.704;2023-03-01T06:32:51;17.38;;;13.95;;
26702;SDS011;14316;51.074;3.704;2023-03-01T06:35:17;24.00;;;14.00;;
26702;SDS011;14316;51.074;3.704;2023-03-01T06:37:44;23.20;;;14.73;;
26702;SDS011;14316;51.074;3.704;2023-03-01T06:40:11;22.48;;;15.48;;
26702;SDS011;14316;51.074;3.704;2023-03-01T06:42:39;19.98;;;14.50;;
26702;SDS011;14316;51.074;3.704;2023-03-01T06:45:07;26.33;;;14.65;;
26702;SDS011;14316;51.074;3.704;2023-03-01T06:47:34;19.45;;;14.40;;
26702;SDS011;14316;51.074;3.704;2023-03-01T06:50:00;22.38;;;15.20;;
26702;SDS011;14316;51.074;3.704;2023-03-01T06:52:27;19.60;;;13.98;;
26702;SDS011;14316;51.074;3.704;2023-03-01T06:54:52;19.23;;;13.48;;
26702;SDS011;14316;51.074;3.704;2023-03-01T06:57:18;19.77;;;13.48;;
26702;SDS011;14316;51.074;3.704;2023-03-01T06:59:44;25.15;;;13.77;;
26702;SDS011;14316;51.074;3.704;2023-03-01T07:02:11;18.67;;;12.65;;
26702;SDS011;14316;51.074;3.704;2023-03-01T07:04:38;16.35;;;11.60;;
26702;SDS011;14316;51.074;3.704;2023-03-01T07:07:05;14.57;;;11.48;;
26702;SDS011;14316;51.074;3.704;2023-03-01T07:09:30;17.70;;;12.88;;
26702;SDS011;14316;51.074;3.704;2023-03-01T07:11:57;17.88;;;12.70;;
26702;SDS011;14316;51.074;3.704;2023-03-01T07:14:23;19.15;;;11.88;;
26702;SDS011;14316;51.074;3.704;2023-03-01T07:16:50;18.90;;;13.40;;
26702;SDS011;14316;51.074;3.704;2023-03-01T07:19:17;23.83;;;13.40;;
26702;SDS011;14316;51.074;3.704;2023-03-01T07:21:42;19.35;;;12.52;;
26702;SDS011;14316;51.074;3.704;2023-03-01T07:24:08;23.45;;;13.77;;
26702;SDS011;14316;51.074;3.704;2023-03-01T07:26:35;17.20;;;11.88;;
26702;SDS011;14316;51.074;3.704;2023-03-01T07:29:05;20.98;;;12.88;;
26702;SDS011;14316;51.074;3.704;2023-03-01T07:31:33;20.02;;;12.50;;
26702;SDS011;14316;51.074;3.704;2023-03-01T07:33:59;24.00;;;13.18;;
26702;SDS011;14316;51.074;3.704;2023-03-01T07:36:25;20.48;;;11.68;;
26702;SDS011;14316;51.074;3.704;2023-03-01T07:38:51;21.05;;;12.70;;
26702;SDS011;14316;51.074;3.704;2023-03-01T07:41:17;17.77;;;12.38;;
26702;SDS011;14316;51.074;3.704;2023-03-01T07:43:43;19.77;;;13.23;;
26702;SDS011;14316;51.074;3.704;2023-03-01T07:46:09;21.38;;;12.52;;
26702;SDS011;14316;51.074;3.704;2023-03-01T07:48:35;20.88;;;11.93;;
26702;SDS011;14316;51.074;3.704;2023-03-01T07:51:02;22.67;;;13.20;;
26702;SDS011;14316;51.074;3.704;2023-03-01T07:53:30;20.02;;;11.60;;
26702;SDS011;14316;51.074;3.704;2023-03-01T07:58:38;14.57;;;10.88;;
26702;SDS011;14316;51.074;3.704;2023-03-01T08:01:06;21.23;;;10.98;;
26702;SDS011;14316;51.074;3.704;2023-03-01T08:03:33;24.20;;;10.95;;
26702;SDS011;14316;51.074;3.704;2023-03-01T08:06:00;15.15;;;11.15;;
26702;SDS011;14316;51.074;3.704;2023-03-01T08:08:26;17.30;;;11.18;;
26702;SDS011;14316;51.074;3.704;2023-03-01T08:10:52;22.63;;;10.90;;
26702;SDS011;14316;51.074;3.704;2023-03-01T08:13:22;15.85;;;10.05;;
26702;SDS011;14316;51.074;3.704;2023-03-01T08:15:50;22.15;;;10.82;;
26702;SDS011;14316;51.074;3.704;2023-03-01T08:18:16;15.73;;;10.60;;
26702;SDS011;14316;51.074;3.704;2023-03-01T08:20:42;19.17;;;11.10;;
26702;SDS011;14316;51.074;3.704;2023-03-01T08:23:08;19.60;;;10.35;;
26702;SDS011;14316;51.074;3.704;2023-03-01T08:25:34;15.00;;;9.90;;
26702;SDS011;14316;51.074;3.704;2023-03-01T08:28:00;16.15;;;10.48;;
26702;SDS011;14316;51.074;3.704;2023-03-01T08:30:26;13.25;;;10.05;;
26702;SDS011;14316;51.074;3.704;2023-03-01T08:32:52;14.40;;;9.85;;
26702;SDS011;14316;51.074;3.704;2023-03-01T08:35:18;13.40;;;10.65;;
26702;SDS011;14316;51.074;3.704;2023-03-01T08:37:45;16.83;;;10.45;;
26702;SDS011;14316;51.074;3.704;2023-03-01T08:40:11;16.92;;;10.30;;
26702;SDS011;14316;51.074;3.704;2023-03-01T08:42:39;13.55;;;9.50;;
26702;SDS011;14316;51.074;3.704;2023-03-01T08:45:05;15.00;;;10.20;;
26702;SDS011;14316;51.074;3.704;2023-03-01T08:47:32;13.45;;;10.02;;
26702;SDS011;14316;51.074;3.704;2023-03-01T08:49:59;14.20;;;10.48;;
26702;SDS011;14316;51.074;3.704;2023-03-01T08:52:25;10.88;;;9.55;;
26702;SDS011;14316;51.074;3.704;2023-03-01T08:54:51;12.55;;;10.00;;
26702;SDS011;14316;51.074;3.704;2023-03-01T08:57:17;12.00;;;9.45;;
26702;SDS011;14316;51.074;3.704;2023-03-01T08:59:43;11.93;;;9.70;;
26702;SDS011;14316;51.074;3.704;2023-03-01T09:02:11;12.15;;;9.48;;
26702;SDS011;14316;51.074;3.704;2023-03-01T09:04:39;11.75;;;10.00;;
26702;SDS011;14316;51.074;3.704;2023-03-01T09:07:05;12.30;;;9.52;;
26702;SDS011;14316;51.074;3.704;2023-03-01T09:09:30;13.63;;;10.07;;
26702;SDS011;14316;51.074;3.704;2023-03-01T09:11:56;15.63;;;10.20;;
26702;SDS011;14316;51.074;3.704;2023-03-01T09:14:22;13.82;;;10.10;;
26702;SDS011;14316;51.074;3.704;2023-03-01T09:16:48;12.93;;;10.20;;
26702;SDS011;14316;51.074;3.704;2023-03-01T09:19:15;14.80;;;11.52;;
26702;SDS011;14316;51.074;3.704;2023-03-01T09:21:40;13.55;;;10.05;;
26702;SDS011;14316;51.074;3.704;2023-03-01T09:24:17;10.48;;;8.98;;
26702;SDS011;14316;51.074;3.704;2023-03-01T09:26:45;11.63;;;10.07;;
26702;SDS011;14316;51.074;3.704;2023-03-01T09:29:11;11.68;;;9.50;;
26702;SDS011;14316;51.074;3.704;2023-03-01T09:31:38;11.65;;;9.30;;
26702;SDS011;14316;51.074;3.704;2023-03-01T09:34:04;13.82;;;9.85;;
26702;SDS011;14316;51.074;3.704;2023-03-01T09:36:30;12.55;;;9.05;;
26702;SDS011;14316;51.074;3.704;2023-03-01T09:38:57;11.48;;;9.60;;
26702;SDS011;14316;51.074;3.704;2023-03-01T09:44:25;10.93;;;9.23;;
26702;SDS011;14316;51.074;3.704;2023-03-01T09:46:56;13.77;;;9.30;;
26702;SDS011;14316;51.074;3.704;2023-03-01T09:49:27;11.57;;;8.93;;
26702;SDS011;14316;51.074;3.704;2023-03-01T09:54:29;11.70;;;8.93;;
26702;SDS011;14316;51.074;3.704;2023-03-01T09:59:55;14.18;;;9.80;;
26702;SDS011;14316;51.074;3.704;2023-03-01T10:02:38;10.20;;;8.15;;
26702;SDS011;14316;51.074;3.704;2023-03-01T10:10:34;11.48;;;9.95;;
26702;SDS011;14316;51.074;3.704;2023-03-01T10:13:04;14.57;;;9.07;;
26702;SDS011;14316;51.074;3.704;2023-03-01T10:15:44;10.13;;;8.70;;
26702;SDS011;14316;51.074;3.704;2023-03-01T10:18:20;26.30;;;10.48;;
26702;SDS011;14316;51.074;3.704;2023-03-01T10:23:42;12.32;;;8.82;;
26702;SDS011;14316;51.074;3.704;2023-03-01T10:31:54;13.25;;;8.52;;
26702;SDS011;14316;51.074;3.704;2023-03-01T10:34:30;11.00;;;7.90;;
26702;SDS011;14316;51.074;3.704;2023-03-01T10:37:10;10.10;;;7.68;;
26702;SDS011;14316;51.074;3.704;2023-03-01T10:39:53;9.43;;;8.45;;
26702;SDS011;14316;51.074;3.704;2023-03-01T10:42:22;12.52;;;8.30;;
26702;SDS011;14316;51.074;3.704;2023-03-01T10:44:52;11.23;;;8.48;;
26702;SDS011;14316;51.074;3.704;2023-03-01T10:47:22;9.65;;;8.50;;
26702;SDS011;14316;51.074;3.704;2023-03-01T10:49:53;11.15;;;8.25;;
26702;SDS011;14316;51.074;3.704;2023-03-01T10:52:23;11.00;;;8.85;;
26702;SDS011;14316;51.074;3.704;2023-03-01T10:54:57;11.23;;;9.23;;
26702;SDS011;14316;51.074;3.704;2023-03-01T10:57:36;9.93;;;7.80;;
26702;SDS011;14316;51.074;3.704;2023-03-01T11:00:17;10.27;;;8.50;;
26702;SDS011;14316;51.074;3.704;2023-03-01T11:02:49;9.90;;;7.47;;
26702;SDS011;14316;51.074;3.704;2023-03-01T11:05:25;8.63;;;7.72;;
26702;SDS011;14316;51.074;3.704;2023-03-01T11:10:32;8.43;;;7.50;;
26702;SDS011;14316;51.074;3.704;2023-03-01T11:13:06;11.77;;;7.32;;
26702;SDS011;14316;51.074;3.704;2023-03-01T11:15:40;8.63;;;7.80;;
26702;SDS011;14316;51.074;3.704;2023-03-01T11:18:20;8.88;;;8.05;;
26702;SDS011;14316;51.074;3.704;2023-03-01T11:20:47;9.57;;;7.60;;
26702;SDS011;14316;51.074;3.704;2023-03-01T11:23:16;8.38;;;6.78;;
26702;SDS011;14316;51.074;3.704;2023-03-01T11:25:43;9.20;;;7.05;;
26702;SDS011;14316;51.074;3.704;2023-03-01T11:28:16;10.00;;;6.72;;
26702;SDS011;14316;51.074;3.704;2023-03-01T11:33:44;7.97;;;6.40;;
26702;SDS011;14316;51.074;3.704;2023-03-01T11:44:44;9.68;;;7.30;;
26702;SDS011;14316;51.074;3.704;2023-03-01T12:03:06;8.30;;;7.22;;
26702;SDS011;14316;51.074;3.704;2023-03-01T12:11:39;7.75;;;6.95;;
26702;SDS011;14316;51.074;3.704;2023-03-01T12:42:36;8.95;;;7.20;;
26702;SDS011;14316;51.074;3.704;2023-03-01T12:50:52;11.00;;;6.93;;
26702;SDS011;14316;51.074;3.704;2023-03-01T12:55:47;8.90;;;7.15;;
26702;SDS011;14316;51.074;3.704;2023-03-01T13:06:08;8.35;;;7.30;;
26702;SDS011;14316;51.074;3.704;2023-03-01T13:08:44;7.40;;;6.80;;
26702;SDS011;14316;51.074;3.704;2023-03-01T13:11:19;20.33;;;8.10;;
26702;SDS011;14316;51.074;3.704;2023-03-01T13:13:47;8.35;;;7.30;;
26702;SDS011;14316;51.074;3.704;2023-03-01T13:19:05;8.57;;;7.40;;
26702;SDS011;14316;51.074;3.704;2023-03-01T13:21:37;8.60;;;6.95;;
26702;SDS011;14316;51.074;3.704;2023-03-01T13:24:03;8.38;;;7.47;;
26702;SDS011;14316;51.074;3.704;2023-03-01T13:26:29;8.73;;;7.25;;
26702;SDS011;14316;51.074;3.704;2023-03-01T13:28:58;9.35;;;7.15;;
26702;SDS011;14316;51.074;3.704;2023-03-01T13:34:01;8.63;;;7.10;;
26702;SDS011;14316;51.074;3.704;2023-03-01T13:39:25;11.25;;;8.85;;
26702;SDS011;14316;51.074;3.704;2023-03-01T13:42:03;9.82;;;8.20;;
26702;SDS011;14316;51.074;3.704;2023-03-01T13:44:49;11.57;;;9.43;;
26702;SDS011;14316;51.074;3.704;2023-03-01T13:47:17;10.80;;;9.52;;
26702;SDS011;14316;51.074;3.704;2023-03-01T13:49:52;11.95;;;8.70;;
26702;SDS011;14316;51.074;3.704;2023-03-01T13:54:56;11.45;;;7.47;;
26702;SDS011;14316;51.074;3.704;2023-03-01T13:57:26;10.23;;;7.60;;
26702;SDS011;14316;51.074;3.704;2023-03-01T13:59:58;12.43;;;7.75;;
26702;SDS011;14316;51.074;3.704;2023-03-01T14:02:24;10.68;;;8.10;;
26702;SDS011;14316;51.074;3.704;2023-03-01T14:04:57;14.63;;;8.38;;
26702;SDS011;14316;51.074;3.704;2023-03-01T14:07:24;11.98;;;8.20;;
26702;SDS011;14316;51.074;3.704;2023-03-01T14:09:55;10.77;;;7.93;;
26702;SDS011;14316;51.074;3.704;2023-03-01T14:15:04;12.40;;;8.35;;
26702;SDS011;14316;51.074;3.704;2023-03-01T14:20:47;11.02;;;9.57;;
26702;SDS011;14316;51.074;3.704;2023-03-01T14:23:22;9.77;;;8.77;;
26702;SDS011;14316;51.074;3.704;2023-03-01T14:25:52;11.40;;;8.52;;
26702;SDS011;14316;51.074;3.704;2023-03-01T14:28:21;12.17;;;9.90;;
26702;SDS011;14316;51.074;3.704;2023-03-01T14:30:48;11.52;;;9.45;;
26702;SDS011;14316;51.074;3.704;2023-03-01T14:33:23;21.08;;;12.02;;
26702;SDS011;14316;51.074;3.704;2023-03-01T14:43:40;8.65;;;7.18;;
26702;SDS011;14316;51.074;3.704;2023-03-01T14:51:40;12.02;;;8.70;;
26702;SDS011;14316;51.074;3.704;2023-03-01T14:54:18;10.90;;;9.05;;
26702;SDS011;14316;51.074;3.704;2023-03-01T14:56:57;9.77;;;8.35;;
26702;SDS011;14316;51.074;3.704;2023-03-01T14:59:25;10.05;;;8.48;;
26702;SDS011;14316;51.074;3.704;2023-03-01T15:01:51;9.98;;;7.88;;
26702;SDS011;14316;51.074;3.704;2023-03-01T15:04:20;10.43;;;7.65;;
26702;SDS011;14316;51.074;3.704;2023-03-01T15:06:47;8.20;;;7.15;;
26702;SDS011;14316;51.074;3.704;2023-03-01T15:09:17;10.25;;;8.15;;
26702;SDS011;14316;51.074;3.704;2023-03-01T15:11:44;12.13;;;8.02;;
26702;SDS011;14316;51.074;3.704;2023-03-01T15:14:25;12.60;;;8.32;;
26702;SDS011;14316;51.074;3.704;2023-03-01T15:16:52;12.68;;;8.85;;
26702;SDS011;14316;51.074;3.704;2023-03-01T15:19:19;11.98;;;8.93;;
26702;SDS011;14316;51.074;3.704;2023-03-01T15:21:46;11.18;;;9.60;;
26702;SDS011;14316;51.074;3.704;2023-03-01T15:24:18;13.70;;;8.25;;
26702;SDS011;14316;51.074;3.704;2023-03-01T15:26:51;8.65;;;7.47;;
26702;SDS011;14316;51.074;3.704;2023-03-01T15:29:27;8.55;;;7.65;;
26702;SDS011;14316;51.074;3.704;2023-03-01T15:34:28;8.50;;;7.63;;
26702;SDS011;14316;51.074;3.704;2023-03-01T15:36:57;8.68;;;7.60;;
26702;SDS011;14316;51.074;3.704;2023-03-01T15:42:36;15.77;;;8.90;;
26702;SDS011;14316;51.074;3.704;2023-03-01T15:45:21;9.93;;;7.60;;
26702;SDS011;14316;51.074;3.704;2023-03-01T15:47:50;8.45;;;7.65;;
26702;SDS011;14316;51.074;3.704;2023-03-01T15:50:22;9.25;;;8.25;;
26702;SDS011;14316;51.074;3.704;2023-03-01T15:52:58;12.18;;;8.70;;
26702;SDS011;14316;51.074;3.704;2023-03-01T15:55:29;8.98;;;8.07;;
26702;SDS011;14316;51.074;3.704;2023-03-01T16:00:31;10.32;;;8.82;;
26702;SDS011;14316;51.074;3.704;2023-03-01T16:02:57;11.15;;;8.45;;
26702;SDS011;14316;51.074;3.704;2023-03-01T16:05:28;12.73;;;8.50;;
26702;SDS011;14316;51.074;3.704;2023-03-01T16:07:56;11.13;;;9.30;;
26702;SDS011;14316;51.074;3.704;2023-03-01T16:10:22;18.38;;;9.00;;
26702;SDS011;14316;51.074;3.704;2023-03-01T16:12:48;11.02;;;8.90;;
26702;SDS011;14316;51.074;3.704;2023-03-01T16:15:17;9.70;;;8.80;;
26702;SDS011;14316;51.074;3.704;2023-03-01T16:17:54;12.40;;;9.85;;
26702;SDS011;14316;51.074;3.704;2023-03-01T16:20:21;10.73;;;9.63;;
26702;SDS011;14316;51.074;3.704;2023-03-01T16:22:48;11.40;;;9.90;;
26702;SDS011;14316;51.074;3.704;2023-03-01T16:25:15;12.43;;;9.90;;
26702;SDS011;14316;51.074;3.704;2023-03-01T16:27:42;11.98;;;9.98;;
26702;SDS011;14316;51.074;3.704;2023-03-01T16:30:13;10.95;;;9.77;;
26702;SDS011;14316;51.074;3.704;2023-03-01T16:32:40;14.80;;;10.43;;
26702;SDS011;14316;51.074;3.704;2023-03-01T16:35:07;11.20;;;9.88;;
26702;SDS011;14316;51.074;3.704;2023-03-01T16:37:35;12.07;;;9.93;;
26702;SDS011;14316;51.074;3.704;2023-03-01T16:40:02;12.07;;;9.80;;
26702;SDS011;14316;51.074;3.704;2023-03-01T16:42:33;13.82;;;9.73;;
26702;SDS011;14316;51.074;3.704;2023-03-01T16:44:59;15.13;;;10.68;;
26702;SDS011;14316;51.074;3.704;2023-03-01T16:47:26;12.55;;;10.68;;
26702;SDS011;14316;51.074;3.704;2023-03-01T16:49:53;12.93;;;10.32;;
26702;SDS011;14316;51.074;3.704;2023-03-01T16:52:19;16.15;;;10.30;;
26702;SDS011;14316;51.074;3.704;2023-03-01T16:54:45;14.07;;;10.20;;
26702;SDS011;14316;51.074;3.704;2023-03-01T16:57:10;15.32;;;10.77;;
26702;SDS011;14316;51.074;3.704;2023-03-01T16:59:37;16.23;;;10.55;;
26702;SDS011;14316;51.074;3.704;2023-03-01T17:02:03;15.07;;;10.80;;
26702;SDS011;14316;51.074;3.704;2023-03-01T17:04:31;13.20;;;10.63;;
26702;SDS011;14316;51.074;3.704;2023-03-01T17:06:56;14.02;;;10.05;;
26702;SDS011;14316;51.074;3.704;2023-03-01T17:09:22;14.30;;;10.77;;
26702;SDS011;14316;51.074;3.704;2023-03-01T17:11:48;12.57;;;10.35;;